Bryan, Kentucky
Current Conditions -  °F | °C
As of 10:56 AM on Tuesday 27 Jan 2015 (Local Time) from KEKQ Reporting Station
Overcast Overcast  
Wind Chill: 26°   Ceiling: 1400
Heat Index: 32°   Visibility: 10mi
Dew Point: 28°   Wind: 7mph
Humidity: 85%   Direction: 20°NNE
Pressure: 30.07"   Gusts: NA
Location:  36.9448°N, 85.1275°W
Report Text: KEKQ 271656Z AUTO 02006KT 10SM OVC014 00/M02 A3007 RMK AO2 T00001022 SLP193
Loading
Personal Weather Stations






























Interactive Weather Map New forecast layout! Learn more

10-Day Weather Forecast

Advertisements
Track Severe Weather on mobile